Latest Weather Observations for Bickley

IDW60901

Issued at 4:01 am WST Monday 22 December 2014 (issued every 10 minutes, with the page automatically refreshed every 10 minutes)

About weather observations | Map of Perth area stations | Latest observations for Perth area | Other Formats
Station Details ID: 009240 Name: BICKLEY Lat: -32.01 Lon: 116.14 Height: 384.0 m
Data from the previous 72 hours. | See also: Recent months at Bickley
Date/Time
WST
Tmp

°C
App
Tmp
°C
Dew
Point
°C
Rel
Hum
%
Delta-T

°C
Wind Press
QNH
hPa
Press
MSL
hPa
Rain
since
9 am
mm
Dir
 
Spd
km/h
Gust
km/h
Spd
kts
Gust
kts
22/04:00am 13.2 - 11.4 89 1.0 - - - - - - - 0.0
22/03:30am 13.6 - 11.5 87 1.1 - - - - - - - 0.0
22/03:00am 13.8 - 11.3 85 1.4 - - - - - - - 0.0
22/02:30am 14.2 - 11.5 84 1.5 - - - - - - - 0.0
22/02:00am 14.8 - 11.6 81 1.8 - - - - - - - 0.0
22/01:30am 15.3 - 11.5 78 2.1 - - - - - - - 0.0
22/01:00am 15.7 - 11.3 75 2.4 - - - - - - - 0.0
22/12:30am 16.5 - 11.2 71 2.9 - - - - - - - 0.0
22/12:00am 17.2 - 11.2 68 3.3 - - - - - - - 0.0
 
Date/Time
WST
Tmp

°C
App
Tmp
°C
Dew
Point
°C
Rel
Hum
%
Delta-T

°C
Wind Press
QNH
hPa
Press
MSL
hPa
Rain
since
9 am
mm
Dir
 
Spd
km/h
Gust
km/h
Spd
kts
Gust
kts
21/11:30pm 17.6 - 10.7 64 3.8 - - - - - - - 0.0
21/11:00pm 18.2 - 10.6 61 4.2 - - - - - - - 0.0
21/10:30pm 18.4 - 10.3 59 4.4 - - - - - - - 0.0
21/10:00pm 19.0 - 10.0 56 4.9 - - - - - - - 0.0
21/09:30pm 19.9 - 10.0 53 5.4 - - - - - - - 0.0
21/09:00pm 20.4 - 9.6 50 5.9 - - - - - - - 0.0
21/08:30pm 20.7 - 9.6 49 6.0 - - - - - - - 0.0
21/08:00pm 21.2 - 9.8 48 6.3 - - - - - - - 0.0
21/07:30pm 22.1 - 9.9 46 6.7 - - - - - - - 0.0
21/07:00pm 23.5 - 9.9 42 7.6 - - - - - - - 0.0
21/06:30pm 24.9 - 9.2 37 8.7 - - - - - - - 0.0
21/06:00pm 25.6 - 9.4 36 9.0 - - - - - - - 0.0
21/05:30pm 26.3 - 9.6 35 9.4 - - - - - - - 0.0
21/05:00pm 25.8 - 9.2 35 9.2 - - - - - - - 0.0
21/04:30pm 26.0 - 9.8 36 9.1 - - - - - - - 0.0
21/04:00pm 27.3 - 10.5 35 9.6 - - - - - - - 0.0
21/03:30pm 26.8 - 10.5 36 9.3 - - - - - - - 0.0
21/03:00pm 26.5 - 9.4 34 9.6 - - - - - - - 0.0
21/02:30pm 26.6 - 9.5 34 9.6 - - - - - - - 0.0
21/02:00pm 26.0 - 9.8 36 9.1 - - - - - - - 0.0
21/01:30pm 25.7 - 9.9 37 8.9 - - - - - - - 0.0
21/01:00pm 25.5 - 10.1 38 8.7 - - - - - - - 0.0
21/12:30pm 24.8 - 10.7 41 8.0 - - - - - - - 0.0
21/12:00pm 24.4 - 10.7 42 7.8 - - - - - - - 0.0
21/11:30am 24.1 - 10.7 43 7.6 - - - - - - - 0.0
21/11:00am 22.9 - 10.3 45 7.0 - - - - - - - 0.0
21/10:30am 22.2 - 9.7 45 6.9 - - - - - - - 0.0
21/10:00am 21.3 - 9.5 47 6.4 - - - - - - - 0.0
21/09:30am 20.8 - 9.7 49 6.1 - - - - - - - 0.0
21/09:00am 19.7 - 10.1 54 5.3 - - - - - - - 0.0
21/08:30am 18.5 - 9.8 57 4.7 - - - - - - - 0.0
21/08:00am 17.7 - 10.3 62 4.0 - - - - - - - 0.0
21/07:30am 16.8 - 10.4 66 3.5 - - - - - - - 0.0
21/07:00am 15.5 - 10.1 70 2.9 - - - - - - - 0.0
21/06:30am 14.7 - 10.1 74 2.4 - - - - - - - 0.0
21/06:00am 13.2 - 10.0 81 1.7 - - - - - - - 0.0
21/05:30am 12.7 - 9.7 82 1.6 - - - - - - - 0.0
21/05:00am 12.7 - 9.7 82 1.6 - - - - - - - 0.0
21/04:30am 12.9 - 9.7 81 1.7 - - - - - - - 0.0
21/04:00am 13.2 - 9.6 79 1.9 - - - - - - - 0.0
21/03:30am 13.2 - 9.5 78 1.9 - - - - - - - 0.0
21/03:00am 13.4 - 9.5 77 2.0 - - - - - - - 0.0
21/02:30am 13.7 - 9.2 74 2.3 - - - - - - - 0.0
21/02:00am 14.0 - 9.2 73 2.5 - - - - - - - 0.0
21/01:30am 14.4 - 8.8 69 2.9 - - - - - - - 0.0
21/01:00am 14.9 - 9.1 68 3.0 - - - - - - - 0.0
21/12:30am 15.4 - 9.3 67 3.2 - - - - - - - 0.0
21/12:00am 16.0 - 7.7 58 4.2 - - - - - - - 0.0
 
Date/Time
WST
Tmp

°C
App
Tmp
°C
Dew
Point
°C
Rel
Hum
%
Delta-T

°C
Wind Press
QNH
hPa
Press
MSL
hPa
Rain
since
9 am
mm
Dir
 
Spd
km/h
Gust
km/h
Spd
kts
Gust
kts
20/11:30pm 16.5 - 6.9 53 4.8 - - - - - - - 0.0
20/11:00pm 17.1 - 6.9 51 5.2 - - - - - - - 0.0
20/10:30pm 17.9 - 7.6 51 5.3 - - - - - - - 0.0
20/10:00pm 18.3 - 7.4 49 5.6 - - - - - - - 0.0
20/09:30pm 18.7 - 7.2 47 5.9 - - - - - - - 0.0
20/09:00pm 19.5 - 7.3 45 6.3 - - - - - - - 0.0
20/08:30pm 20.3 - 7.7 44 6.6 - - - - - - - 0.0
20/08:00pm 20.9 - 7.5 42 7.0 - - - - - - - 0.0
20/07:30pm 21.7 - 8.6 43 7.0 - - - - - - - 0.0
20/07:00pm 22.6 - 9.0 42 7.4 - - - - - - - 0.0
20/06:30pm 23.9 - 10.9 44 7.4 - - - - - - - 0.0
20/06:00pm 24.9 - 13.5 49 6.8 - - - - - - - 0.0
20/05:30pm 25.3 - 14.1 50 6.7 - - - - - - - 0.0
20/05:00pm 26.8 - 15.5 50 7.0 - - - - - - - 0.0
20/04:30pm 27.6 - 15.3 47 7.6 - - - - - - - 0.0
20/04:00pm 26.8 - 15.5 50 7.0 - - - - - - - 0.0
20/03:30pm 27.5 - 16.1 49 7.1 - - - - - - - 0.0
20/03:00pm 27.0 - 16.0 51 6.9 - - - - - - - 0.0
20/02:30pm 27.7 - 16.9 51 6.8 - - - - - - - 0.0
20/02:00pm 26.7 - 16.3 53 6.5 - - - - - - - 0.0
20/01:30pm 27.0 - 16.3 52 6.7 - - - - - - - 0.0
20/01:00pm 26.3 - 15.7 52 6.6 - - - - - - - 0.0
20/12:30pm 26.1 - 16.1 54 6.2 - - - - - - - 0.0
20/12:00pm 25.5 - 15.8 55 6.0 - - - - - - - 0.0
20/11:30am 25.7 - 16.0 55 6.0 - - - - - - - 0.0
20/11:00am 26.1 - 16.9 57 5.8 - - - - - - - 0.0
20/10:30am 26.0 - 16.5 55 6.0 - - - - - - - 0.0
20/10:00am 25.2 - 16.9 60 5.2 - - - - - - - 0.0
20/09:30am 25.0 - 17.5 63 4.8 - - - - - - - 0.0
20/09:00am 24.5 - 17.7 66 4.3 - - - - - - - 0.0
20/08:30am 24.3 - 17.3 65 4.4 - - - - - - - 0.0
20/08:00am 24.5 - 17.2 63 4.6 - - - - - - - 0.0
20/07:30am 24.5 - 17.5 65 4.4 - - - - - - - 0.0
20/07:00am 24.2 - 17.9 68 4.0 - - - - - - - 0.0
20/06:30am 23.5 - 17.7 70 3.7 - - - - - - - 0.0
20/06:00am 21.7 - 17.1 75 2.9 - - - - - - - 0.0
20/05:30am 21.2 - 16.8 76 2.7 - - - - - - - 0.0
20/05:00am 21.3 - 16.5 74 3.0 - - - - - - - 0.0
20/04:30am 21.4 - 16.4 73 3.1 - - - - - - - 0.0
20/04:00am 21.6 - 16.3 72 3.3 - - - - - - - 0.0
20/03:30am 21.8 - 16.3 71 3.4 - - - - - - - 0.0
20/03:00am 21.8 - 15.6 68 3.8 - - - - - - - 0.0
20/02:30am 22.5 - 15.8 66 4.1 - - - - - - - 0.0
20/02:00am 22.3 - 15.4 65 4.2 - - - - - - - 0.0
20/01:30am 22.8 - 15.1 62 4.7 - - - - - - - 0.0
20/01:00am 23.1 - 14.7 59 5.1 - - - - - - - 0.0
20/12:30am 23.5 - 14.2 56 5.6 - - - - - - - 0.0
20/12:00am 23.2 - 13.4 54 5.8 - - - - - - - 0.0
 
Date/Time
WST
Tmp

°C
App
Tmp
°C
Dew
Point
°C
Rel
Hum
%
Delta-T

°C
Wind Press
QNH
hPa
Press
MSL
hPa
Rain
since
9 am
mm
Dir
 
Spd
km/h
Gust
km/h
Spd
kts
Gust
kts
19/11:30pm 23.7 - 12.7 50 6.4 - - - - - - - 0.0
19/11:00pm 24.4 - 11.7 45 7.3 - - - - - - - 0.0
19/10:30pm 25.0 - 10.1 39 8.4 - - - - - - - 0.0
19/10:00pm 26.3 - 8.3 32 9.9 - - - - - - - 0.0
19/09:30pm 26.0 - 7.1 30 10.1 - - - - - - - 0.0
19/09:00pm 26.8 - 6.2 27 10.9 - - - - - - - 0.0
19/08:30pm 27.3 - 6.1 26 11.3 - - - - - - - 0.0
19/08:00pm 27.8 - 6.6 26 11.4 - - - - - - - 0.0
19/07:30pm 28.6 - 7.8 27 11.5 - - - - - - - 0.0
19/07:00pm 29.8 - 9.3 28 11.6 - - - - - - - 0.0
19/06:30pm 31.6 - 10.3 27 12.4 - - - - - - - 0.0
19/06:00pm 33.0 - 10.9 26 13.1 - - - - - - - 0.0
19/05:30pm 34.2 - 11.4 25 13.6 - - - - - - - 0.0
19/05:00pm 35.4 - 13.0 26 13.8 - - - - - - - 0.0
19/04:30pm 35.6 - 11.9 24 14.4 - - - - - - - 0.0
19/04:00pm 36.8 - 9.4 19 16.1 - - - - - - - 0.0
19/03:30pm 36.6 - 9.2 19 16.0 - - - - - - - 0.0
19/03:00pm 36.1 - 9.6 20 15.5 - - - - - - - 0.0
19/02:30pm 36.5 - 9.9 20 15.7 - - - - - - - 0.0
19/02:00pm 35.9 - 11.5 23 14.7 - - - - - - - 0.0
19/01:30pm 35.6 - 11.3 23 14.6 - - - - - - - 0.0
19/01:00pm 35.0 - 11.4 24 14.2 - - - - - - - 0.0
19/12:30pm 34.4 - 10.9 24 14.0 - - - - - - - 0.0
19/12:00pm 34.5 - 12.2 26 13.5 - - - - - - - 0.0
19/11:30am 32.8 - 11.3 27 12.8 - - - - - - - 0.0
19/11:00am 31.9 - 10.6 27 12.5 - - - - - - - 0.0
19/10:30am 30.4 - 10.9 30 11.4 - - - - - - - 0.0
19/10:00am 29.1 - 11.2 33 10.4 - - - - - - - 0.0
19/09:30am 27.6 - 11.2 36 9.5 - - - - - - - 0.0
19/09:00am 26.0 - 10.6 38 8.8 - - - - - - - 0.0
19/08:30am 24.5 - 11.1 43 7.6 - - - - - - - 0.0
19/08:00am 21.9 - 10.1 47 6.5 - - - - - - - 0.0
19/07:30am 20.7 - 10.5 52 5.6 - - - - - - - 0.0
19/07:00am 19.1 - 10.4 57 4.8 - - - - - - - 0.0
19/06:30am 17.6 - 10.0 61 4.1 - - - - - - - 0.0
19/06:00am 16.1 - 9.5 65 3.5 - - - - - - - 0.0
19/05:30am 15.9 - 9.1 64 3.6 - - - - - - - 0.0
19/05:00am 16.0 - 9.2 64 3.6 - - - - - - - 0.0
19/04:30am 16.1 - 9.1 63 3.7 - - - - - - - 0.0

Latest Capital City Observations: Canberra | Sydney | Melbourne | Brisbane | Adelaide | Perth | Hobart | Darwin

Other Formats:

Comma delimited format used in spreadsheet applications
http://www.bom.gov.au/fwo/IDW60901/IDW60901.95610.axf

JavaScript Object Notation format (JSON) in row-major order
http://www.bom.gov.au/fwo/IDW60901/IDW60901.95610.json